Time;durP1;ratioP1;P1;durP2;ratioP2;P2;SDS_P1;SDS_P2;PMS_P1;PMS_P2;Temp;Humidity;BMP_temperature;BMP_pressure;BME280_temperature;BME280_humidity;BME280_pressure;Samples;Min_cycle;Max_cycle;Signal;HPM_P1;HPM_P2
2021/12/23 00:01:57;;;;;;;6.68;1.30;;;;;;;18.87;34.60;101084.72;4180665;28;20087;-47
2021/12/23 00:03:58;;;;;;;8.18;1.58;;;;;;;18.81;34.68;101074.69;4182443;28;20099;-48
2021/12/23 00:06:00;;;;;;;9.30;1.30;;;;;;;18.88;34.50;101091.94;4182856;28;20421;-44
2021/12/23 00:08:02;;;;;;;11.40;2.50;;;;;;;18.83;34.63;101089.09;4180690;28;20088;-43
2021/12/23 00:10:07;;;;;;;7.53;1.55;;;;;;;18.86;34.75;101096.91;4181315;28;20037;-46
2021/12/23 00:12:08;;;;;;;9.93;1.38;;;;;;;18.88;34.82;101114.13;4197432;28;20044;-45
2021/12/23 00:14:11;;;;;;;8.48;1.70;;;;;;;18.87;34.89;101112.44;4176571;28;20477;-44
2021/12/23 00:16:29;;;;;;;6.40;1.27;;;;;;;18.88;34.87;101116.91;4181218;28;20045;-44
2021/12/23 00:24:59;;;;;;;6.65;1.20;;;;;;;18.88;35.08;101125.22;4181558;28;20434;-47
2021/12/23 00:27:01;;;;;;;7.85;1.48;;;;;;;18.89;35.00;101137.97;4181631;28;20075;-44
2021/12/23 00:29:02;;;;;;;6.82;1.27;;;;;;;18.89;35.24;101138.81;4169512;28;20400;-44
2021/12/23 00:31:06;;;;;;;7.32;1.38;;;;;;;18.91;35.44;101144.09;4179555;28;20476;-44
2021/12/23 00:33:07;;;;;;;7.50;2.15;;;;;;;18.88;35.46;101147.41;4180905;28;20049;-45
2021/12/23 00:35:10;;;;;;;3.90;1.15;;;;;;;18.86;35.34;101149.59;4182052;28;20033;-47
2021/12/23 00:37:12;;;;;;;7.60;1.77;;;;;;;18.89;35.35;101149.06;4178791;28;20052;-44
2021/12/23 00:39:15;;;;;;;8.80;1.30;;;;;;;18.89;35.30;101166.53;4180540;28;20461;-46
2021/12/23 00:41:22;;;;;;;7.07;1.23;;;;;;;18.84;35.27;101165.66;4182523;28;20025;-48
2021/12/23 00:43:24;;;;;;;4.65;1.55;;;;;;;18.88;35.67;101175.97;4181980;28;20396;-44
2021/12/23 00:45:26;;;;;;;6.47;1.30;;;;;;;18.89;35.58;101190.66;4181330;28;20142;-47
2021/12/23 00:47:27;;;;;;;4.30;1.20;;;;;;;18.89;35.37;101199.81;4180805;28;20435;-44
2021/12/23 00:49:29;;;;;;;5.20;1.30;;;;;;;18.86;35.37;101205.88;4180984;28;20044;-43
2021/12/23 00:51:30;;;;;;;8.40;1.38;;;;;;;18.87;35.49;101206.72;4180764;28;20455;-45
2021/12/23 00:53:38;;;;;;;6.00;1.65;;;;;;;18.87;35.51;101209.47;4180167;28;20048;-44
2021/12/23 00:55:39;;;;;;;4.97;1.20;;;;;;;18.88;35.59;101208.41;4179811;28;20095;-48
2021/12/23 00:57:41;;;;;;;2.85;1.35;;;;;;;18.87;35.75;101209.47;4179558;28;20044;-45
2021/12/23 00:59:42;;;;;;;7.32;1.77;;;;;;;18.87;35.57;101206.72;4180612;28;20074;-47
2021/12/23 01:01:44;;;;;;;7.53;1.40;;;;;;;18.88;35.75;101213.94;4181173;28;20098;-45
2021/12/23 01:03:45;;;;;;;5.90;1.55;;;;;;;18.87;35.83;101217.81;4173593;28;20037;-48
2021/12/23 01:05:47;;;;;;;6.18;1.65;;;;;;;18.87;36.11;101248.31;4181633;28;20037;-45
2021/12/23 01:07:49;;;;;;;6.80;1.52;;;;;;;18.79;35.90;101238.53;4179648;28;20106;-43
2021/12/23 01:09:50;;;;;;;7.57;1.40;;;;;;;18.86;36.28;101260.50;4181422;28;20082;-47
2021/12/23 01:11:53;;;;;;;7.88;1.60;;;;;;;18.85;35.94;101265.22;4181718;28;20051;-45
2021/12/23 01:14:14;;;;;;;6.18;2.00;;;;;;;18.85;36.09;101269.91;4178415;28;20488;-46
2021/12/23 01:16:26;;;;;;;4.97;1.67;;;;;;;18.86;35.99;101271.59;4181427;28;20045;-45
2021/12/23 01:18:31;;;;;;;8.30;1.67;;;;;;;18.85;36.51;101269.91;4179478;28;20095;-47
2021/12/23 01:20:51;;;;;;;4.85;1.83;;;;;;;18.85;36.19;101278.25;4180200;28;20053;-45
2021/12/23 01:22:56;;;;;;;3.60;1.30;;;;;;;18.85;36.76;101278.25;4178479;28;20501;-48
2021/12/23 01:24:57;;;;;;;4.75;1.88;;;;;;;18.83;36.47;101284.06;4181320;28;20553;-44
2021/12/23 01:26:59;;;;;;;5.03;1.50;;;;;;;18.85;36.56;101292.09;4181134;28;20033;-45
2021/12/23 01:29:01;;;;;;;5.50;1.40;;;;;;;18.83;36.66;101288.72;4178769;28;20102;-45
2021/12/23 01:31:02;;;;;;;6.90;1.45;;;;;;;18.80;36.86;101290.09;4180111;28;20037;-45
2021/12/23 01:33:06;;;;;;;6.43;1.80;;;;;;;18.79;36.74;101299.53;4181462;28;20455;-46
2021/12/23 01:35:08;;;;;;;4.80;1.60;;;;;;;18.82;37.11;101299.00;4176442;28;20099;-43
2021/12/23 01:37:09;;;;;;;4.93;1.70;;;;;;;18.82;36.95;101298.16;4180856;28;20195;-45
2021/12/23 01:39:13;;;;;;;4.22;1.40;;;;;;;18.82;36.90;101292.59;4170381;28;20076;-45
2021/12/23 01:41:15;;;;;;;4.43;1.50;;;;;;;18.82;37.12;101303.69;4165071;28;20037;-47
2021/12/23 01:43:20;;;;;;;3.90;1.40;;;;;;;18.81;36.78;101294.53;4176623;28;20029;-48
2021/12/23 01:45:29;;;;;;;6.22;1.67;;;;;;;18.79;37.32;101300.38;4179256;28;20473;-47
2021/12/23 01:47:31;;;;;;;6.50;1.35;;;;;;;18.81;37.36;101293.72;4179183;28;20041;-48
2021/12/23 01:49:32;;;;;;;4.10;1.30;;;;;;;18.79;37.55;101299.53;4179273;28;20110;-48
2021/12/23 01:51:33;;;;;;;4.70;1.50;;;;;;;18.74;37.35;101305.00;4176696;28;20048;-46
2021/12/23 01:53:35;;;;;;;4.28;1.60;;;;;;;18.78;37.17;101320.88;4176244;28;20087;-44
2021/12/23 01:55:37;;;;;;;3.22;1.23;;;;;;;18.77;37.45;101332.19;4177996;28;20045;-45
2021/12/23 01:57:40;;;;;;;7.10;1.52;;;;;;;18.71;37.49;101320.22;4173921;28;20042;-46
2021/12/23 01:59:44;;;;;;;3.95;1.23;;;;;;;18.76;37.80;101319.44;4175767;28;20032;-44
2021/12/23 02:01:46;;;;;;;3.40;1.40;;;;;;;18.75;37.56;101321.38;4180369;28;20071;-47
2021/12/23 02:03:47;;;;;;;4.10;1.27;;;;;;;18.66;37.47;101306.25;4180255;28;20033;-47
2021/12/23 02:05:49;;;;;;;4.57;1.30;;;;;;;18.69;37.74;101310.47;4174963;28;20037;-44
2021/12/23 02:07:50;;;;;;;4.60;1.30;;;;;;;18.74;38.03;101327.19;4178367;28;20033;-47
2021/12/23 02:09:58;;;;;;;4.35;1.70;;;;;;;18.71;37.59;101330.47;4178963;28;20115;-47
2021/12/23 02:12:02;;;;;;;3.55;1.13;;;;;;;18.71;37.96;101347.94;4179562;28;20103;-44
2021/12/23 02:14:04;;;;;;;3.75;1.42;;;;;;;18.72;37.76;101338.50;4180561;28;20041;-46
2021/12/23 02:16:06;;;;;;;4.05;1.27;;;;;;;18.72;37.95;101341.28;4180755;28;20037;-45
2021/12/23 02:18:08;;;;;;;6.28;1.27;;;;;;;18.72;38.27;101349.59;4180241;28;20095;-45
2021/12/23 02:20:12;;;;;;;2.35;1.27;;;;;;;18.72;37.99;101351.53;4180723;28;20033;-44
2021/12/23 02:22:14;;;;;;;2.58;1.13;;;;;;;18.71;37.96;101352.63;4177488;28;20091;-45
2021/12/23 02:24:17;;;;;;;5.75;1.63;;;;;;;18.68;38.15;101356.72;4177846;28;20476;-47
2021/12/23 02:26:18;;;;;;;3.72;1.42;;;;;;;18.69;38.10;101355.69;4180468;28;20033;-45
2021/12/23 02:28:21;;;;;;;3.40;1.42;;;;;;;18.69;38.31;101360.34;4179630;28;20029;-45
2021/12/23 02:30:25;;;;;;;2.20;1.10;;;;;;;18.70;38.32;101367.59;4167772;28;20504;-46
2021/12/23 02:32:27;;;;;;;3.40;1.20;;;;;;;18.70;37.97;101368.44;4164097;28;20076;-43
2021/12/23 02:34:31;;;;;;;4.18;1.30;;;;;;;18.68;38.31;101364.19;4172025;28;20041;-43
2021/12/23 02:36:33;;;;;;;3.37;1.30;;;;;;;18.67;38.16;101377.22;4168119;28;20046;-44
2021/12/23 02:38:34;;;;;;;11.02;1.95;;;;;;;18.67;38.59;101376.38;4163058;28;20769;-44
2021/12/23 02:40:38;;;;;;;10.85;1.65;;;;;;;18.68;38.43;101378.91;4174130;28;20028;-44
2021/12/23 02:42:39;;;;;;;2.50;1.17;;;;;;;18.69;38.62;101377.00;4180182;28;20044;-45
2021/12/23 02:44:41;;;;;;;3.08;1.20;;;;;;;18.69;38.49;101383.41;4167416;28;20033;-47
2021/12/23 02:46:45;;;;;;;4.40;1.20;;;;;;;18.67;38.44;101374.44;4162713;28;20033;-49
2021/12/23 02:48:47;;;;;;;4.18;1.17;;;;;;;18.66;38.64;101372.78;4162424;28;20029;-44
2021/12/23 02:50:54;;;;;;;3.20;1.48;;;;;;;18.68;38.32;101381.66;4162591;28;20087;-45
2021/12/23 02:52:58;;;;;;;11.98;1.92;;;;;;;18.64;38.42;101374.94;4161183;28;20038;-49
2021/12/23 02:55:00;;;;;;;4.00;1.05;;;;;;;18.68;38.43;101386.38;4162083;28;20037;-49
2021/12/23 02:57:02;;;;;;;5.43;1.63;;;;;;;18.67;38.72;101391.09;4165914;28;20100;-48
2021/12/23 02:59:03;;;;;;;5.82;1.25;;;;;;;18.66;38.84;101400.50;4165357;28;20045;-46
2021/12/23 03:01:08;;;;;;;2.95;1.15;;;;;;;18.66;38.92;101406.03;4170287;28;20033;-51
2021/12/23 03:03:09;;;;;;;;;;;;;;;18.64;38.62;101404.59;4180514;28;20041;-50
2021/12/23 03:05:13;;;;;;;5.05;1.33;;;;;;;18.68;38.81;101397.47;4177077;28;19913;-47
2021/12/23 03:07:15;;;;;;;9.30;1.30;;;;;;;18.63;38.78;101392.69;4172625;28;20033;-49
2021/12/23 03:09:17;;;;;;;5.75;1.05;;;;;;;18.68;39.01;101414.94;4167591;28;20091;-49
2021/12/23 03:11:22;;;;;;;3.33;1.17;;;;;;;18.67;38.80;101417.97;4167494;28;20090;-48
2021/12/23 03:13:23;;;;;;;5.00;1.40;;;;;;;18.66;39.08;101422.69;4167391;28;20095;-46
2021/12/23 03:15:25;;;;;;;3.40;1.00;;;;;;;18.66;39.00;101422.69;4167215;28;20562;-44
2021/12/23 03:17:27;;;;;;;2.25;1.10;;;;;;;18.64;39.25;101421.25;4172837;28;20105;-48
2021/12/23 03:19:31;;;;;;;4.90;1.15;;;;;;;18.55;39.41;101404.19;4183873;28;20130;-49
2021/12/23 03:21:34;;;;;;;1.97;1.00;;;;;;;18.61;39.75;101435.63;4183493;28;20087;-47
2021/12/23 03:23:35;;;;;;;2.05;1.00;;;;;;;18.61;39.25;101436.47;4174213;28;20041;-47
2021/12/23 03:25:37;;;;;;;4.25;1.50;;;;;;;18.57;39.54;101429.75;4167169;28;20042;-45
2021/12/23 03:27:38;;;;;;;5.57;1.83;;;;;;;18.62;39.47;101454.75;4167038;28;20029;-48
2021/12/23 03:29:40;;;;;;;2.35;1.27;;;;;;;18.57;39.67;101443.59;4176214;28;20470;-46
2021/12/23 03:31:41;;;;;;;2.70;1.00;;;;;;;18.57;39.73;101432.50;4183042;28;20037;-46
2021/12/23 03:33:43;;;;;;;5.28;1.00;;;;;;;18.60;40.10;101445.88;4167568;28;20083;-44
2021/12/23 03:35:46;;;;;;;2.65;0.80;;;;;;;18.60;40.05;101445.00;4166567;28;20045;-45
2021/12/23 03:37:50;;;;;;;8.30;1.00;;;;;;;18.60;39.94;101445.00;4178030;28;20040;-45
2021/12/23 03:39:57;;;;;;;2.53;1.25;;;;;;;18.59;39.67;101449.72;4183203;28;20440;-45
2021/12/23 03:41:58;;;;;;;5.47;1.98;;;;;;;18.59;40.06;101460.81;4179433;28;20037;-43
2021/12/23 03:44:00;;;;;;;9.32;1.35;;;;;;;18.58;39.76;101459.13;4167263;28;20095;-45
2021/12/23 03:46:02;;;;;;;9.32;1.20;;;;;;;18.59;39.72;101466.34;4173723;28;20041;-46
2021/12/23 03:48:04;;;;;;;2.15;1.05;;;;;;;18.58;40.00;101478.53;4175366;28;20046;-46
2021/12/23 03:50:09;;;;;;;4.03;1.20;;;;;;;18.57;39.99;101479.63;4172656;28;20044;-47
2021/12/23 03:52:10;;;;;;;5.38;0.98;;;;;;;18.55;39.93;101476.25;4176721;28;20087;-47
2021/12/23 03:54:12;;;;;;;3.35;1.13;;;;;;;18.52;40.21;101482.31;4173719;28;20523;-52
2021/12/23 03:56:14;;;;;;;3.70;1.10;;;;;;;18.55;40.08;101476.25;4164879;28;20038;-48
2021/12/23 03:58:15;;;;;;;8.52;1.40;;;;;;;18.51;39.96;101480.66;4166749;28;20127;-49
2021/12/23 04:00:20;;;;;;;5.97;1.33;;;;;;;18.54;39.95;101496.75;4166620;28;20037;-48
2021/12/23 04:02:21;;;;;;;7.63;1.55;;;;;;;18.53;39.86;101489.53;4166375;28;20038;-45
2021/12/23 04:04:23;;;;;;;3.67;1.02;;;;;;;18.52;39.84;101504.50;4166633;28;20029;-44
2021/12/23 04:06:26;;;;;;;3.00;1.10;;;;;;;18.49;39.90;101499.44;4166332;28;20041;-44
2021/12/23 04:08:28;;;;;;;5.07;0.93;;;;;;;18.51;39.71;101506.44;4165683;28;20079;-48
2021/12/23 04:10:29;;;;;;;4.00;1.20;;;;;;;18.49;39.74;101516.06;4166412;28;20103;-47
2021/12/23 04:12:51;;;;;;;4.90;1.05;;;;;;;18.48;39.87;101508.84;4166564;28;20046;-45
2021/12/23 04:14:52;;;;;;;5.55;0.98;;;;;;;18.47;39.99;101510.78;4166118;28;20034;-46
2021/12/23 04:16:53;;;;;;;4.32;1.08;;;;;;;18.49;40.01;101521.63;4165877;28;20104;-45
2021/12/23 04:18:55;;;;;;;4.32;1.20;;;;;;;18.46;39.65;101524.88;4165950;28;20041;-49
2021/12/23 04:20:56;;;;;;;4.72;0.90;;;;;;;18.49;39.33;101529.94;4166595;28;20033;-47
2021/12/23 04:22:58;;;;;;;4.90;1.17;;;;;;;18.47;39.36;101534.91;4166546;28;20037;-49
2021/12/23 04:25:03;;;;;;;3.50;1.00;;;;;;;18.45;39.74;101543.44;4166329;28;20041;-48
2021/12/23 04:27:05;;;;;;;4.00;1.00;;;;;;;18.44;39.45;101547.31;4178809;28;20079;-48
2021/12/23 04:29:07;;;;;;;3.03;1.00;;;;;;;18.42;39.49;101546.72;4182574;28;20277;-49
2021/12/23 04:31:09;;;;;;;8.20;1.10;;;;;;;18.40;39.53;101545.28;4181210;28;20048;-44
2021/12/23 04:33:11;;;;;;;5.88;1.25;;;;;;;18.40;39.39;101534.19;4181231;28;20071;-47
2021/12/23 04:35:13;;;;;;;5.13;1.10;;;;;;;18.40;39.48;101536.97;4182699;28;20033;-48
2021/12/23 04:37:16;;;;;;;6.22;1.23;;;;;;;18.39;39.37;101538.06;4181864;28;20037;-49
2021/12/23 04:39:20;;;;;;;4.47;1.13;;;;;;;18.36;39.77;101539.41;4182215;28;20442;-45
2021/12/23 04:41:22;;;;;;;7.18;0.88;;;;;;;18.37;39.67;101545.78;4172282;28;20049;-45
2021/12/23 04:43:23;;;;;;;5.93;1.10;;;;;;;18.39;39.47;101546.38;4166394;28;20103;-45
2021/12/23 04:45:24;;;;;;;11.35;1.42;;;;;;;18.38;39.69;101548.31;4173715;28;20095;-45
2021/12/23 04:47:26;;;;;;;7.78;1.20;;;;;;;18.35;39.72;101550.75;4182212;28;20094;-46
2021/12/23 04:49:30;;;;;;;3.78;1.10;;;;;;;18.37;39.58;101551.31;4182062;28;20036;-43
2021/12/23 04:51:31;;;;;;;5.43;1.08;;;;;;;18.36;39.51;101555.19;4182315;28;20078;-45
2021/12/23 04:53:33;;;;;;;5.28;1.10;;;;;;;18.34;39.52;101549.91;4166513;28;20041;-49
2021/12/23 04:55:34;;;;;;;2.05;0.90;;;;;;;18.34;39.67;101546.28;4165378;28;20111;-47
2021/12/23 04:57:36;;;;;;;5.75;1.08;;;;;;;18.35;39.67;101556.28;4165530;28;20065;-45
2021/12/23 04:59:38;;;;;;;8.25;1.42;;;;;;;18.32;39.85;101551.22;4165911;28;20543;-45
2021/12/23 05:01:39;;;;;;;5.10;1.40;;;;;;;18.32;39.44;101556.75;4165130;28;20049;-46
2021/12/23 05:03:40;;;;;;;5.38;0.90;;;;;;;18.33;39.64;101566.78;4174540;28;20049;-46
2021/12/23 05:05:42;;;;;;;3.78;1.15;;;;;;;18.34;39.48;101576.78;4181478;28;20103;-44
2021/12/23 05:07:44;;;;;;;4.03;0.77;;;;;;;18.32;39.29;101577.00;4179559;28;20067;-46
2021/12/23 05:09:46;;;;;;;3.75;0.77;;;;;;;18.27;39.28;101574.13;4167600;28;20575;-46
2021/12/23 05:11:48;;;;;;;4.35;1.02;;;;;;;18.31;39.88;101566.16;4176505;28;20446;-45
2021/12/23 05:13:49;;;;;;;8.60;1.17;;;;;;;18.31;39.74;101574.47;4167546;28;20029;-46
2021/12/23 05:15:51;;;;;;;5.07;1.20;;;;;;;18.25;39.73;101566.06;4165367;28;20091;-47
2021/12/23 05:17:52;;;;;;;6.07;1.10;;;;;;;18.28;39.52;101564.75;4179038;28;20037;-47
2021/12/23 05:19:56;;;;;;;3.72;0.95;;;;;;;18.25;39.60;101566.06;4181382;28;20045;-45
2021/12/23 05:21:57;;;;;;;6.13;1.08;;;;;;;18.31;39.77;101575.31;4181432;28;20476;-46
2021/12/23 05:23:59;;;;;;;1.98;0.93;;;;;;;18.30;39.91;101576.41;4181303;28;20365;-50
2021/12/23 05:26:06;;;;;;;8.68;1.25;;;;;;;18.30;39.52;101576.41;4180032;28;20102;-48
2021/12/23 05:28:07;;;;;;;5.10;1.35;;;;;;;18.29;39.74;101585.81;4181514;28;20106;-46
2021/12/23 05:30:12;;;;;;;6.60;1.25;;;;;;;18.28;39.47;101586.91;4179388;28;20033;-50
2021/12/23 05:32:14;;;;;;;7.70;1.17;;;;;;;18.24;39.61;101581.03;4180768;28;20032;-47
2021/12/23 05:34:15;;;;;;;7.30;1.23;;;;;;;18.22;39.49;101588.72;4181521;28;20464;-47
2021/12/23 05:36:17;;;;;;;8.23;1.20;;;;;;;18.27;39.68;101591.59;4181234;28;20458;-50
2021/12/23 05:38:22;;;;;;;5.00;0.98;;;;;;;18.27;39.34;101590.75;4180889;28;20098;-49
2021/12/23 05:40:24;;;;;;;;;;;;;;;18.25;39.71;101593.78;4180432;28;20083;-48
2021/12/23 05:42:25;;;;;;;5.18;1.95;;;;;;;18.31;39.44;101597.50;4181747;28;19905;-46
2021/12/23 05:44:26;;;;;;;4.80;1.08;;;;;;;18.31;39.25;101603.03;4181480;28;20094;-48
2021/12/23 05:46:28;;;;;;;5.13;2.63;;;;;;;18.31;39.57;101607.72;4180977;28;20036;-48
2021/12/23 05:48:29;;;;;;;2.95;1.05;;;;;;;18.31;39.44;101624.34;4180501;28;20098;-46
2021/12/23 05:50:31;;;;;;;9.68;1.17;;;;;;;18.28;39.34;101614.63;4181378;28;20062;-48
2021/12/23 05:52:36;;;;;;;7.97;1.30;;;;;;;18.25;39.39;101627.03;4181118;28;20041;-46
2021/12/23 05:54:37;;;;;;;3.33;1.30;;;;;;;18.24;39.07;101625.34;4179624;28;20045;-46
2021/12/23 05:56:41;;;;;;;4.40;0.80;;;;;;;18.19;38.99;101621.63;4181155;28;20037;-47
2021/12/23 05:58:43;;;;;;;3.40;1.02;;;;;;;18.24;39.15;101630.91;4181027;28;20460;-46
2021/12/23 06:00:44;;;;;;;2.13;0.90;;;;;;;18.21;39.14;101628.59;4180813;28;20044;-48
2021/12/23 06:02:47;;;;;;;9.00;0.98;;;;;;;18.21;39.25;101634.16;4180874;28;20075;-47
2021/12/23 06:04:49;;;;;;;6.15;0.90;;;;;;;18.19;39.25;101625.25;4180329;28;20052;-47
2021/12/23 06:06:50;;;;;;;3.65;1.00;;;;;;;18.22;39.15;101630.28;4180180;28;20037;-48
2021/12/23 06:08:51;;;;;;;7.72;1.08;;;;;;;18.22;38.93;101633.06;4179593;28;20091;-47
2021/12/23 06:10:53;;;;;;;3.67;1.02;;;;;;;18.22;39.21;101635.81;4180419;28;20037;-49
2021/12/23 06:12:54;;;;;;;3.83;1.00;;;;;;;18.23;39.33;101640.25;4168809;28;20127;-53
2021/12/23 06:14:59;;;;;;;4.43;0.80;;;;;;;18.23;39.08;101634.72;4164375;28;20091;-45
2021/12/23 06:17:02;;;;;;;1.95;0.88;;;;;;;18.26;38.79;101634.25;4180083;28;20041;-48
2021/12/23 06:19:03;;;;;;;1.77;0.80;;;;;;;18.28;38.71;101636.78;4179544;28;20045;-47
2021/12/23 06:21:04;;;;;;;2.00;0.50;;;;;;;18.27;38.41;101641.47;4178659;28;20041;-47
2021/12/23 06:23:06;;;;;;;4.80;0.88;;;;;;;18.22;38.53;101632.22;4164661;28;20033;-47
2021/12/23 06:25:09;;;;;;;5.25;0.85;;;;;;;18.29;38.58;101644.84;4165787;28;20092;-47
2021/12/23 06:27:11;;;;;;;2.88;0.98;;;;;;;18.31;38.63;101640.97;4180946;28;20439;-47
2021/12/23 06:29:15;;;;;;;1.20;0.73;;;;;;;18.32;38.58;101642.66;4180219;28;20091;-48
2021/12/23 06:31:17;;;;;;;7.28;0.82;;;;;;;18.28;38.31;101648.72;4180356;28;20045;-51
2021/12/23 06:33:21;;;;;;;2.85;1.25;;;;;;;18.28;38.54;101643.16;4167858;28;20094;-46
2021/12/23 06:35:26;;;;;;;3.40;1.02;;;;;;;18.34;38.72;101663.50;4181022;28;20083;-48
2021/12/23 06:37:28;;;;;;;3.65;0.80;;;;;;;18.35;38.14;101656.03;4179952;28;20087;-48
2021/12/23 06:39:33;;;;;;;1.25;0.70;;;;;;;18.37;38.37;101662.16;4180619;28;20041;-46
2021/12/23 06:41:34;;;;;;;1.95;0.98;;;;;;;18.37;38.29;101663.03;4180943;28;20033;-48
2021/12/23 06:43:39;;;;;;;4.28;0.80;;;;;;;18.36;38.34;101661.31;4180725;28;20079;-46
2021/12/23 06:45:40;;;;;;;2.63;0.90;;;;;;;18.39;38.40;101671.06;4180289;28;20094;-48
2021/12/23 06:47:43;;;;;;;5.45;0.65;;;;;;;18.36;38.43;101654.94;4179042;28;20083;-49
2021/12/23 06:49:47;;;;;;;2.55;0.73;;;;;;;18.43;38.19;101680.59;4180193;28;20136;-49
2021/12/23 06:51:48;;;;;;;1.25;0.75;;;;;;;18.44;38.29;101683.09;4179905;28;20484;-47
2021/12/23 06:53:50;;;;;;;3.63;0.95;;;;;;;18.45;38.06;101682.00;4178965;28;20106;-49
2021/12/23 06:55:52;;;;;;;2.08;0.73;;;;;;;18.47;38.50;101684.56;4163641;28;20052;-46
2021/12/23 06:57:57;;;;;;;6.32;0.90;;;;;;;18.48;38.28;101691.78;4164472;28;20029;-46
2021/12/23 06:59:58;;;;;;;2.30;1.10;;;;;;;18.45;38.01;101692.25;4180402;28;20439;-45
2021/12/23 07:02:00;;;;;;;1.33;0.77;;;;;;;18.51;38.18;101699.59;4179142;28;20520;-46
2021/12/23 07:04:14;;;;;;;1.95;1.00;;;;;;;18.51;38.21;101708.75;4180325;28;20102;-47
2021/12/23 07:06:20;;;;;;;3.28;1.50;;;;;;;18.30;37.94;101673.38;4180248;28;20403;-47
2021/12/23 07:08:29;;;;;;;2.22;0.80;;;;;;;18.52;38.22;101706.81;4180283;28;20086;-48
2021/12/23 07:10:32;;;;;;;2.47;0.68;;;;;;;18.52;38.16;101715.13;4176724;28;20068;-49
2021/12/23 07:12:34;;;;;;;2.47;0.57;;;;;;;18.53;38.07;101722.34;4180348;28;20024;-47
2021/12/23 07:14:36;;;;;;;2.45;0.65;;;;;;;18.56;37.91;101732.13;4180226;28;20474;-45
2021/12/23 07:16:38;;;;;;;3.65;2.05;;;;;;;18.52;37.96;101729.84;4179804;28;20037;-45
2021/12/23 07:18:40;;;;;;;1.02;0.63;;;;;;;18.56;38.15;101737.66;4179121;28;20053;-46
2021/12/23 07:20:41;;;;;;;2.63;0.80;;;;;;;18.58;37.75;101741.03;4166795;28;20358;-45
2021/12/23 07:22:43;;;;;;;2.15;0.60;;;;;;;18.56;38.18;101744.06;4164385;28;20049;-46
2021/12/23 07:24:44;;;;;;;1.27;0.65;;;;;;;18.58;37.86;101743.78;4177527;28;20041;-48
2021/12/23 07:26:46;;;;;;;1.02;0.60;;;;;;;18.58;37.96;101752.94;4180054;28;20053;-48
2021/12/23 07:28:50;;;;;;;1.73;0.70;;;;;;;18.57;37.93;101745.72;4179557;28;20407;-48
2021/12/23 07:30:52;;;;;;;2.45;0.73;;;;;;;18.59;37.98;101753.78;4179557;28;20110;-49
2021/12/23 07:32:54;;;;;;;1.20;0.52;;;;;;;18.59;37.62;101753.78;4179783;28;20090;-49
2021/12/23 07:34:55;;;;;;;0.90;0.70;;;;;;;18.58;37.75;101752.09;4180109;28;20116;-46
2021/12/23 07:37:00;;;;;;;1.17;0.52;;;;;;;18.54;38.03;101749.81;4179533;28;20045;-50
2021/12/23 07:39:07;;;;;;;1.48;0.80;;;;;;;18.59;37.56;101756.56;4179892;28;20383;-48
2021/12/23 07:41:08;;;;;;;1.83;0.50;;;;;;;18.60;37.81;101756.34;4179727;28;20087;-48
2021/12/23 07:43:20;;;;;;;0.80;0.40;;;;;;;18.61;38.06;101759.94;4181472;28;20045;-48
2021/12/23 07:45:26;;;;;;;1.58;0.77;;;;;;;18.60;37.75;101756.34;4182531;28;20496;-45
2021/12/23 07:47:29;;;;;;;1.77;0.70;;;;;;;18.62;37.57;101754.16;4183278;28;20163;-47
2021/12/23 07:49:31;;;;;;;0.95;0.50;;;;;;;18.61;37.52;101758.00;4181455;28;20379;-47
2021/12/23 07:51:33;;;;;;;1.77;0.90;;;;;;;18.63;37.52;101760.53;4182884;28;20032;-46
2021/12/23 07:53:34;;;;;;;1.42;0.75;;;;;;;18.63;37.66;101760.53;4171499;28;20076;-49
2021/12/23 07:55:39;;;;;;;0.73;0.60;;;;;;;18.64;37.53;101759.44;4181902;28;20078;-45
2021/12/23 07:57:41;;;;;;;3.33;0.75;;;;;;;18.64;37.81;101762.19;4181772;28;20037;-47
2021/12/23 07:59:42;;;;;;;1.73;0.80;;;;;;;18.63;37.71;101753.03;4182436;28;20095;-47
2021/12/23 08:01:44;;;;;;;1.33;0.68;;;;;;;18.63;37.50;101755.81;4182955;28;20091;-45
2021/12/23 08:03:45;;;;;;;2.25;0.93;;;;;;;18.64;37.67;101751.97;4178312;28;20049;-45
2021/12/23 08:05:52;;;;;;;2.42;0.60;;;;;;;18.66;37.39;101757.28;4181150;28;20040;-45
2021/12/23 08:07:56;;;;;;;1.05;0.55;;;;;;;18.65;37.84;101759.22;4181164;28;20108;-47
2021/12/23 08:09:58;;;;;;;4.30;0.80;;;;;;;18.66;37.37;101765.59;4181177;28;20098;-47
2021/12/23 08:12:00;;;;;;;2.25;0.70;;;;;;;18.66;37.53;101766.44;4182497;28;20052;-45
2021/12/23 08:14:01;;;;;;;2.92;0.57;;;;;;;18.64;37.66;101763.03;4182323;28;20099;-45
2021/12/23 08:16:04;;;;;;;1.25;0.40;;;;;;;18.64;37.41;101765.81;4180548;28;20098;-45
2021/12/23 08:18:05;;;;;;;2.72;0.50;;;;;;;18.63;37.61;101766.91;4181768;28;20037;-45
2021/12/23 08:20:07;;;;;;;1.23;0.70;;;;;;;18.65;37.64;101775.00;4182040;28;20388;-47
2021/12/23 08:22:09;;;;;;;2.42;0.70;;;;;;;18.66;37.65;101776.69;4182664;28;20028;-45
2021/12/23 08:24:10;;;;;;;1.08;0.52;;;;;;;18.64;37.63;101782.44;4181880;28;20037;-45
2021/12/23 08:26:16;;;;;;;1.17;0.60;;;;;;;18.62;37.24;101773.53;4182681;28;20079;-46
2021/12/23 08:28:17;;;;;;;3.80;0.75;;;;;;;18.64;37.56;101785.22;4181579;28;20090;-46
2021/12/23 08:30:21;;;;;;;1.17;0.57;;;;;;;18.66;37.22;101794.16;4182645;28;20094;-47
2021/12/23 08:32:26;;;;;;;0.50;0.50;;;;;;;18.66;37.57;101794.16;4181991;28;20044;-51
2021/12/23 08:34:34;;;;;;;1.65;0.57;;;;;;;18.67;37.17;101795.00;4182206;28;20049;-50
2021/12/23 08:36:36;;;;;;;0.50;0.50;;;;;;;18.67;37.61;101797.75;4182583;28;20175;-48
2021/12/23 08:38:40;;;;;;;0.80;0.60;;;;;;;18.67;37.54;101801.38;4181765;28;20098;-49
2021/12/23 08:40:41;;;;;;;1.42;0.77;;;;;;;18.68;37.05;101811.38;4182384;28;20492;-49
2021/12/23 08:42:43;;;;;;;0.88;0.45;;;;;;;18.66;37.26;101813.56;4169220;28;20041;-46
2021/12/23 08:44:44;;;;;;;1.70;0.70;;;;;;;18.67;37.16;101823.56;4181708;28;20106;-46
2021/12/23 08:46:46;;;;;;;1.77;0.75;;;;;;;18.66;37.49;101824.66;4182172;28;20096;-47
2021/12/23 08:48:47;;;;;;;1.25;0.80;;;;;;;18.66;37.32;101827.41;4176889;28;20554;-50
2021/12/23 08:50:49;;;;;;;4.15;0.63;;;;;;;18.66;37.30;101835.75;4181599;28;20090;-46
2021/12/23 08:52:51;;;;;;;0.88;0.70;;;;;;;18.66;37.10;101832.97;4181409;28;20434;-48
2021/12/23 08:54:53;;;;;;;1.15;0.50;;;;;;;18.66;37.32;101832.97;4181386;28;20118;-46
2021/12/23 08:56:54;;;;;;;1.40;0.57;;;;;;;18.65;37.18;101839.59;4181778;28;20431;-50
2021/12/23 08:58:56;;;;;;;1.30;0.55;;;;;;;18.67;37.03;101856.81;4181251;28;20123;-45
2021/12/23 09:00:57;;;;;;;0.88;0.60;;;;;;;18.63;37.17;101847.31;4181178;28;20107;-49
2021/12/23 09:02:59;;;;;;;0.88;0.60;;;;;;;18.64;37.41;101859.22;4181659;28;20167;-48
2021/12/23 09:05:00;;;;;;;0.70;0.60;;;;;;;18.46;37.59;101832.50;4182113;28;20033;-47
2021/12/23 09:07:02;;;;;;;0.47;0.47;;;;;;;18.66;37.40;101866.22;4182163;28;20427;-52
2021/12/23 09:09:05;;;;;;;0.65;0.60;;;;;;;18.66;37.00;101870.94;4181433;28;20353;-47
2021/12/23 09:11:06;;;;;;;0.88;0.50;;;;;;;18.62;37.38;101865.03;4179788;28;20041;-47
2021/12/23 09:13:08;;;;;;;1.08;0.70;;;;;;;18.66;37.24;101879.25;4181455;28;20037;-48
2021/12/23 09:15:10;;;;;;;1.25;0.60;;;;;;;18.65;37.45;101878.41;4181492;28;20490;-47
2021/12/23 09:17:12;;;;;;;0.60;0.40;;;;;;;18.66;37.12;101877.31;4181477;28;20037;-48
2021/12/23 09:19:14;;;;;;;1.13;0.70;;;;;;;18.65;37.26;101875.66;4181168;28;20045;-46
2021/12/23 09:21:16;;;;;;;0.75;0.60;;;;;;;18.59;37.24;101868.28;4181487;28;20094;-47
2021/12/23 09:23:19;;;;;;;1.00;0.50;;;;;;;18.65;37.26;101878.41;4180959;28;20041;-47
2021/12/23 09:25:30;;;;;;;0.85;0.60;;;;;;;18.64;37.30;101868.38;4172084;28;20045;-46
2021/12/23 09:27:44;;;;;;;0.45;0.35;;;;;;;18.66;37.34;101874.56;4173951;28;20482;-49
2021/12/23 09:34:08;;;;;;;1.27;0.60;;;;;;;18.64;37.38;101879.47;4182389;28;20090;-48
2021/12/23 09:36:10;;;;;;;1.88;0.70;;;;;;;18.64;37.45;101873.94;4181452;28;20090;-49
2021/12/23 09:38:11;;;;;;;1.55;0.75;;;;;;;18.64;37.30;101878.63;4181456;28;20102;-46
2021/12/23 09:40:13;;;;;;;0.70;0.50;;;;;;;18.62;37.38;101870.56;4180966;28;20087;-46
2021/12/23 09:42:15;;;;;;;2.72;0.65;;;;;;;18.60;37.18;101875.53;4181417;28;20497;-48
2021/12/23 09:44:17;;;;;;;0.73;0.52;;;;;;;18.60;37.27;101883.84;4181349;28;20048;-48